createdAt,value
2023-02-15T00:02:02.298Z,22.43
2023-02-15T00:04:47.344Z,19.67
2023-02-15T00:07:16.159Z,22.50
2023-02-15T00:09:42.840Z,19.83
2023-02-15T00:12:10.870Z,21.47
2023-02-15T00:14:37.586Z,22.63
2023-02-15T00:17:04.833Z,19.50
2023-02-15T00:19:31.712Z,21.50
2023-02-15T00:21:58.392Z,22.73
2023-02-15T00:24:25.142Z,18.03
2023-02-15T00:26:51.740Z,21.53
2023-02-15T00:29:19.689Z,16.87
2023-02-15T00:31:46.942Z,19.27
2023-02-15T00:34:25.081Z,19.67
2023-02-15T00:36:51.904Z,20.37
2023-02-15T00:39:19.117Z,22.87
2023-02-15T00:41:46.728Z,18.23
2023-02-15T00:44:14.515Z,17.50
2023-02-15T00:46:41.216Z,18.53
2023-02-15T00:49:07.935Z,21.40
2023-02-15T00:51:35.381Z,18.70
2023-02-15T00:54:02.005Z,20.00
2023-02-15T00:56:29.512Z,20.90
2023-02-15T00:58:56.253Z,21.60
2023-02-15T01:01:23.169Z,18.63
2023-02-15T01:03:50.166Z,24.10
2023-02-15T01:06:17.603Z,17.90
2023-02-15T01:08:45.768Z,22.17
2023-02-15T01:11:15.664Z,21.17
2023-02-15T01:13:42.746Z,22.50
2023-02-15T01:16:09.487Z,20.80
2023-02-15T01:18:36.521Z,21.30
2023-02-15T01:21:20.370Z,23.80
2023-02-15T01:23:47.667Z,22.67
2023-02-15T01:26:14.737Z,25.57
2023-02-15T01:28:41.718Z,23.33
2023-02-15T01:31:10.622Z,22.80
2023-02-15T01:33:37.745Z,25.00
2023-02-15T01:36:05.478Z,23.47
2023-02-15T01:38:32.298Z,22.97
2023-02-15T01:41:18.926Z,22.63
2023-02-15T01:43:48.357Z,22.73
2023-02-15T01:46:17.471Z,23.43
2023-02-15T01:48:49.496Z,25.47
2023-02-15T01:51:20.188Z,27.70
2023-02-15T01:54:16.395Z,24.13
2023-02-15T01:56:43.109Z,25.03
2023-02-15T01:59:13.397Z,26.53
2023-02-15T02:01:40.278Z,22.20
2023-02-15T02:04:27.001Z,28.07
2023-02-15T02:06:54.466Z,26.83
2023-02-15T02:09:21.100Z,28.40
2023-02-15T02:11:48.645Z,31.30
2023-02-15T02:14:15.837Z,27.27
2023-02-15T02:16:54.017Z,26.10
2023-02-15T02:19:32.855Z,28.90
2023-02-15T02:22:14.196Z,30.17
2023-02-15T02:24:59.439Z,31.80
2023-02-15T02:27:34.305Z,27.67
2023-02-15T02:30:26.002Z,31.57
2023-02-15T02:33:22.802Z,29.43
2023-02-15T02:36:21.829Z,35.33
2023-02-15T02:38:48.397Z,27.67
2023-02-15T02:41:36.522Z,28.90
2023-02-15T02:44:30.821Z,24.87
2023-02-15T02:47:05.757Z,30.77
2023-02-15T02:49:41.144Z,25.53
2023-02-15T02:52:46.534Z,29.70
2023-02-15T02:55:52.334Z,27.57
2023-02-15T02:58:26.393Z,27.40
2023-02-15T03:01:02.544Z,25.93
2023-02-15T03:03:33.656Z,25.73
2023-02-15T03:06:03.363Z,30.07
2023-02-15T03:08:37.696Z,28.33
2023-02-15T03:11:05.285Z,30.40
2023-02-15T03:13:32.804Z,31.43
2023-02-15T03:16:18.819Z,30.40
2023-02-15T03:18:53.854Z,33.60
2023-02-15T03:21:25.838Z,31.73
2023-02-15T03:23:56.983Z,34.47
2023-02-15T03:26:25.284Z,32.77
2023-02-15T03:28:54.909Z,33.00
2023-02-15T03:31:22.784Z,40.07
2023-02-15T03:34:00.647Z,37.13
2023-02-15T03:36:40.765Z,38.50
2023-02-15T03:39:38.436Z,38.50
2023-02-15T03:42:12.751Z,38.83
2023-02-15T03:45:05.013Z,44.07
2023-02-15T03:47:41.441Z,36.33
2023-02-15T03:50:37.791Z,35.27
2023-02-15T03:53:07.336Z,39.17
2023-02-15T03:55:35.153Z,38.23
2023-02-15T03:58:20.381Z,36.80
2023-02-15T04:01:33.881Z,41.97
2023-02-15T04:04:04.015Z,40.83
2023-02-15T04:06:30.609Z,40.33
2023-02-15T04:09:15.793Z,35.63
2023-02-15T04:11:42.352Z,35.73
2023-02-15T04:14:34.704Z,58.68
2023-02-15T04:17:01.316Z,41.00
2023-02-15T04:19:46.382Z,45.43
2023-02-15T04:22:31.305Z,40.53
2023-02-15T04:25:16.029Z,39.20
2023-02-15T04:27:46.029Z,38.60
2023-02-15T04:30:14.342Z,34.63
2023-02-15T04:32:41.036Z,41.50
2023-02-15T04:35:08.423Z,40.80
2023-02-15T04:37:35.181Z,138.97
2023-02-15T04:40:05.005Z,75.67
2023-02-15T04:42:31.666Z,50.30
2023-02-15T04:44:58.320Z,52.47
2023-02-15T04:47:25.198Z,49.13
2023-02-15T04:49:51.817Z,40.60
2023-02-15T04:52:18.808Z,72.20
2023-02-15T04:54:46.246Z,50.17
2023-02-15T04:57:13.413Z,85.40
2023-02-15T04:59:40.014Z,116.10
2023-02-15T05:02:06.951Z,166.13
2023-02-15T05:04:33.595Z,66.53
2023-02-15T05:07:00.212Z,68.30
2023-02-15T05:09:26.870Z,71.20
2023-02-15T05:11:53.520Z,167.33
2023-02-15T05:14:20.270Z,78.67
2023-02-15T05:16:46.966Z,84.47
2023-02-15T05:19:13.986Z,48.47
2023-02-15T05:21:40.665Z,41.53
2023-02-15T05:24:27.255Z,43.80
2023-02-15T05:27:12.343Z,59.47
2023-02-15T05:29:38.928Z,67.77
2023-02-15T05:32:05.688Z,70.70
2023-02-15T05:34:32.434Z,61.80
2023-02-15T05:36:59.105Z,62.10
2023-02-15T05:39:25.748Z,64.90
2023-02-15T05:41:52.350Z,96.60
2023-02-15T05:44:19.046Z,93.07
2023-02-15T05:46:45.688Z,70.53
2023-02-15T05:49:12.348Z,56.83
2023-02-15T05:51:38.977Z,92.57
2023-02-15T05:54:05.611Z,59.73
2023-02-15T05:56:32.236Z,54.13
2023-02-15T05:58:58.856Z,65.73
2023-02-15T06:01:25.688Z,55.40
2023-02-15T06:03:53.201Z,46.13
2023-02-15T06:06:19.931Z,39.77
2023-02-15T06:08:47.140Z,47.33
2023-02-15T06:11:13.696Z,91.80
2023-02-15T06:13:40.308Z,60.73
2023-02-15T06:16:07.736Z,42.67
2023-02-15T06:18:34.799Z,42.43
2023-02-15T06:21:01.426Z,39.07
2023-02-15T06:23:28.071Z,40.33
2023-02-15T06:25:54.701Z,53.23
2023-02-15T06:28:21.378Z,48.80
2023-02-15T06:30:48.169Z,49.13
2023-02-15T06:33:14.843Z,55.77
2023-02-15T06:35:41.474Z,45.03
2023-02-15T06:38:08.143Z,52.70
2023-02-15T06:40:40.901Z,50.68
2023-02-15T06:43:07.575Z,53.07
2023-02-15T06:45:34.187Z,44.30
2023-02-15T06:48:00.922Z,51.07
2023-02-15T06:50:27.556Z,52.97
2023-02-15T06:53:00.222Z,50.27
2023-02-15T06:55:26.994Z,32.90
2023-02-15T06:57:53.595Z,41.23
2023-02-15T07:00:20.453Z,35.77
2023-02-15T07:02:47.078Z,39.60
2023-02-15T07:05:13.915Z,35.47
2023-02-15T07:07:40.613Z,30.03
2023-02-15T07:10:07.801Z,25.17
2023-02-15T07:12:43.652Z,25.93
2023-02-15T07:15:12.237Z,24.77
2023-02-15T07:17:39.156Z,23.10
2023-02-15T07:20:08.965Z,20.27
2023-02-15T07:22:37.356Z,14.47
2023-02-15T07:25:09.047Z,20.43
2023-02-15T07:27:35.807Z,22.77
2023-02-15T07:30:11.792Z,23.45
2023-02-15T07:32:58.408Z,26.43
2023-02-15T07:35:25.651Z,19.60
2023-02-15T07:37:54.101Z,26.07
2023-02-15T07:40:23.434Z,20.53
2023-02-15T07:42:51.184Z,26.60
2023-02-15T07:45:18.928Z,22.57
2023-02-15T07:47:45.745Z,25.07
2023-02-15T07:50:12.402Z,27.57
2023-02-15T07:52:39.022Z,27.50
2023-02-15T07:55:06.164Z,21.80
2023-02-15T07:57:32.772Z,26.27
2023-02-15T07:59:59.430Z,27.87
2023-02-15T08:02:26.146Z,26.90
2023-02-15T08:04:52.797Z,22.57
2023-02-15T08:07:19.419Z,28.97
2023-02-15T08:09:46.025Z,32.77
2023-02-15T08:12:12.623Z,23.20
2023-02-15T08:14:39.300Z,27.17
2023-02-15T08:17:06.086Z,31.63
2023-02-15T08:19:33.635Z,28.43
2023-02-15T08:22:08.295Z,27.27
2023-02-15T08:24:38.049Z,30.03
2023-02-15T08:27:06.505Z,34.37
2023-02-15T08:29:34.425Z,31.30
2023-02-15T08:32:07.538Z,25.93
2023-02-15T08:34:40.368Z,27.00
2023-02-15T08:37:07.324Z,29.60
2023-02-15T08:39:34.063Z,35.40
2023-02-15T08:42:00.717Z,28.03
2023-02-15T08:44:27.391Z,26.17
2023-02-15T08:46:54.045Z,26.67
2023-02-15T08:49:22.125Z,21.80
2023-02-15T08:51:49.994Z,26.40
2023-02-15T08:54:21.837Z,27.63
2023-02-15T08:56:49.009Z,25.70
2023-02-15T08:59:24.441Z,25.83
2023-02-15T09:01:52.708Z,18.80
2023-02-15T09:04:20.386Z,19.93
2023-02-15T09:06:49.415Z,22.13
2023-02-15T09:09:17.690Z,24.47
2023-02-15T09:11:46.409Z,24.50
2023-02-15T09:14:15.481Z,21.20
2023-02-15T09:16:47.266Z,23.30
2023-02-15T09:19:14.334Z,21.37
2023-02-15T09:21:41.133Z,19.00
2023-02-15T09:24:10.433Z,20.00
2023-02-15T09:26:41.572Z,15.90
2023-02-15T09:29:08.739Z,14.90
2023-02-15T09:31:45.421Z,19.00
2023-02-15T09:34:14.456Z,15.63
2023-02-15T09:36:41.544Z,17.13
2023-02-15T09:39:13.657Z,15.73
2023-02-15T09:41:51.510Z,18.13
2023-02-15T09:44:55.707Z,19.70
2023-02-15T09:47:47.020Z,18.43
2023-02-15T09:50:37.124Z,19.83
2023-02-15T09:53:21.666Z,18.57
2023-02-15T09:56:11.243Z,15.10
2023-02-15T09:58:46.964Z,20.60
2023-02-15T10:01:36.210Z,17.33
2023-02-15T10:04:05.766Z,16.87
2023-02-15T10:06:32.421Z,16.83
2023-02-15T10:09:17.642Z,17.93
2023-02-15T10:12:04.779Z,14.57
2023-02-15T10:14:53.252Z,13.73
2023-02-15T10:17:22.759Z,14.13
2023-02-15T10:20:12.403Z,18.30
2023-02-15T10:22:45.161Z,14.27
2023-02-15T10:25:26.818Z,20.32
2023-02-15T10:27:53.391Z,14.70
2023-02-15T10:30:32.712Z,15.00
2023-02-15T10:33:05.100Z,16.17
2023-02-15T10:35:41.586Z,19.60
2023-02-15T10:38:11.794Z,13.77
2023-02-15T10:40:48.203Z,16.13
2023-02-15T10:43:25.199Z,14.13
2023-02-15T10:46:04.528Z,17.93
2023-02-15T10:48:55.049Z,19.27
2023-02-15T10:51:30.662Z,22.13
2023-02-15T10:54:21.998Z,22.93
2023-02-15T10:57:15.325Z,17.17
2023-02-15T11:00:00.665Z,16.07
2023-02-15T11:02:53.071Z,16.73
2023-02-15T11:05:27.883Z,14.87
2023-02-15T11:07:57.134Z,12.93
2023-02-15T11:10:35.788Z,16.30
2023-02-15T11:13:06.868Z,16.80
2023-02-15T11:15:37.827Z,15.87
2023-02-15T11:18:25.068Z,15.00
2023-02-15T11:20:54.989Z,13.80
2023-02-15T11:23:21.957Z,14.50
2023-02-15T11:26:00.997Z,17.53
2023-02-15T11:28:48.293Z,14.50
2023-02-15T11:31:22.107Z,13.90
2023-02-15T11:33:53.364Z,17.13
2023-02-15T11:36:23.790Z,14.63
2023-02-15T11:38:56.098Z,16.70
2023-02-15T11:41:26.172Z,16.47
2023-02-15T11:44:02.012Z,14.93
2023-02-15T11:46:29.853Z,13.90
2023-02-15T11:48:56.634Z,13.70
2023-02-15T11:54:09.766Z,11.83
2023-02-15T11:56:36.390Z,15.33
2023-02-15T11:59:08.381Z,14.83
2023-02-15T12:01:41.573Z,16.87
2023-02-15T12:04:36.044Z,14.23
2023-02-15T12:07:30.052Z,13.60
2023-02-15T12:10:18.921Z,12.90
2023-02-15T12:12:45.579Z,15.53
2023-02-15T12:15:14.202Z,14.37
2023-02-15T12:17:48.675Z,13.80
2023-02-15T12:20:15.261Z,13.10
2023-02-15T12:22:49.809Z,15.60
2023-02-15T12:25:38.988Z,14.17
2023-02-15T12:28:21.225Z,16.07
2023-02-15T12:30:47.973Z,12.93
2023-02-15T12:33:17.571Z,18.53
2023-02-15T12:35:45.281Z,16.87
2023-02-15T12:38:11.817Z,20.17
2023-02-15T12:40:39.441Z,14.40
2023-02-15T12:43:11.896Z,18.93
2023-02-15T12:45:39.179Z,15.80
2023-02-15T12:48:21.710Z,16.88
2023-02-15T12:50:55.413Z,13.77
2023-02-15T12:53:24.644Z,14.67
2023-02-15T12:55:56.074Z,16.70
2023-02-15T12:58:26.849Z,13.43
2023-02-15T13:01:04.902Z,13.10
2023-02-15T13:03:31.794Z,15.33
2023-02-15T13:05:59.303Z,14.67
2023-02-15T13:08:32.903Z,13.57
2023-02-15T13:11:04.163Z,11.47
2023-02-15T13:13:48.980Z,12.07
2023-02-15T13:16:16.221Z,11.83
2023-02-15T13:18:47.213Z,12.43
2023-02-15T13:21:20.472Z,16.43
2023-02-15T13:23:57.984Z,14.57
2023-02-15T13:26:27.596Z,16.60
2023-02-15T13:29:00.154Z,13.45
2023-02-15T13:31:33.468Z,15.97
2023-02-15T13:34:22.013Z,15.30
2023-02-15T13:36:59.158Z,14.40
2023-02-15T13:39:45.359Z,14.20
2023-02-15T13:42:22.340Z,19.17
2023-02-15T13:44:54.852Z,11.60
2023-02-15T13:47:24.457Z,14.40
2023-02-15T13:50:23.029Z,19.90
2023-02-15T13:53:03.485Z,11.47
2023-02-15T13:55:47.882Z,17.57
2023-02-15T13:58:17.571Z,12.77
2023-02-15T14:01:06.702Z,14.23
2023-02-15T14:03:45.533Z,13.93
2023-02-15T14:06:30.656Z,11.17
2023-02-15T14:09:09.042Z,14.43
2023-02-15T14:11:41.279Z,14.87
2023-02-15T14:14:28.061Z,17.70
2023-02-15T14:17:29.961Z,17.50
2023-02-15T14:20:03.894Z,27.33
2023-02-15T14:22:33.421Z,19.23
2023-02-15T14:25:27.213Z,14.14
2023-02-15T14:28:15.631Z,14.37
2023-02-15T14:30:50.966Z,20.17
2023-02-15T14:33:26.813Z,21.03
2023-02-15T14:35:53.511Z,20.90
2023-02-15T14:38:22.949Z,23.60
2023-02-15T14:41:04.693Z,14.20
2023-02-15T14:43:54.241Z,17.93
2023-02-15T14:46:47.669Z,13.27
2023-02-15T14:49:18.124Z,15.13
2023-02-15T14:51:44.816Z,13.87
2023-02-15T14:54:34.290Z,14.03
2023-02-15T14:57:04.007Z,13.83
2023-02-15T14:59:33.595Z,15.17
2023-02-15T15:02:05.643Z,14.47
2023-02-15T15:04:36.953Z,18.17
2023-02-15T15:07:39.970Z,18.77
2023-02-15T15:10:31.487Z,18.33
2023-02-15T15:12:58.574Z,22.00
2023-02-15T15:15:28.233Z,28.83
2023-02-15T15:18:06.831Z,24.17
2023-02-15T15:20:46.962Z,24.30
2023-02-15T15:23:16.486Z,39.67
2023-02-15T15:25:55.026Z,33.37
2023-02-15T15:28:33.819Z,48.43
2023-02-15T15:31:04.833Z,82.40
2023-02-15T15:33:48.113Z,169.73
2023-02-15T15:36:17.712Z,291.97
2023-02-15T15:39:22.284Z,140.00
2023-02-15T15:42:10.672Z,284.17
2023-02-15T15:45:02.054Z,158.93
2023-02-15T15:47:53.415Z,148.50
2023-02-15T15:50:25.509Z,111.80
2023-02-15T15:52:55.262Z,132.20
2023-02-15T15:55:24.050Z,74.47
2023-02-15T15:57:53.512Z,61.30
2023-02-15T16:00:36.787Z,61.03
2023-02-15T16:03:03.736Z,40.27
2023-02-15T16:05:39.697Z,87.47
2023-02-15T16:08:06.716Z,53.90
2023-02-15T16:10:35.004Z,89.37
2023-02-15T16:13:02.792Z,73.80
2023-02-15T16:15:29.413Z,40.72
2023-02-15T16:17:57.845Z,43.10
2023-02-15T16:20:25.670Z,30.60
2023-02-15T16:23:34.171Z,57.60
2023-02-15T16:26:34.862Z,52.27
2023-02-15T16:29:02.577Z,45.30
2023-02-15T16:31:29.252Z,53.23
2023-02-15T16:33:56.358Z,35.50
2023-02-15T16:36:25.312Z,52.97
2023-02-15T16:38:51.842Z,40.83
2023-02-15T16:41:31.404Z,40.13
2023-02-15T16:44:02.432Z,35.43
2023-02-15T16:46:32.175Z,30.87
2023-02-15T16:49:02.620Z,34.87
2023-02-15T16:51:31.363Z,30.23
2023-02-15T16:54:07.306Z,47.77
2023-02-15T16:56:34.494Z,42.83
2023-02-15T16:59:03.524Z,43.10
2023-02-15T17:01:32.726Z,49.53
2023-02-15T17:04:27.828Z,58.90
2023-02-15T17:07:17.088Z,59.77
2023-02-15T17:09:57.552Z,29.60
2023-02-15T17:12:56.275Z,48.10
2023-02-15T17:15:31.494Z,42.20
2023-02-15T17:18:01.341Z,43.40
2023-02-15T17:20:28.723Z,41.17
2023-02-15T17:22:55.672Z,50.33
2023-02-15T17:25:27.632Z,47.43
2023-02-15T17:27:56.359Z,54.10
2023-02-15T17:30:32.517Z,84.43
2023-02-15T17:33:03.862Z,83.20
2023-02-15T17:35:32.238Z,74.97
2023-02-15T17:38:11.855Z,71.13
2023-02-15T17:40:38.475Z,86.50
2023-02-15T17:43:05.046Z,89.97
2023-02-15T17:45:37.629Z,86.23
2023-02-15T17:48:05.915Z,97.97
2023-02-15T17:50:33.260Z,110.33
2023-02-15T17:53:02.002Z,106.27
2023-02-15T17:55:43.035Z,64.63
2023-02-15T17:58:14.796Z,112.10
2023-02-15T18:01:11.564Z,110.87
2023-02-15T18:04:05.509Z,92.47
2023-02-15T18:06:51.178Z,104.87
2023-02-15T18:09:38.352Z,89.23
2023-02-15T18:12:22.989Z,50.97
2023-02-15T18:14:50.513Z,74.67
2023-02-15T18:17:18.234Z,92.37
2023-02-15T18:19:46.013Z,71.53
2023-02-15T18:22:14.254Z,93.70
2023-02-15T18:24:40.822Z,190.17
2023-02-15T18:27:07.580Z,86.87
2023-02-15T18:29:34.191Z,131.93
2023-02-15T18:32:01.483Z,66.67
2023-02-15T18:34:42.200Z,40.40
2023-02-15T18:37:15.452Z,55.47
2023-02-15T18:39:54.420Z,87.03
2023-02-15T18:42:24.228Z,74.47
2023-02-15T18:44:54.816Z,99.00
2023-02-15T18:47:21.391Z,63.53
2023-02-15T18:49:48.161Z,66.45
2023-02-15T18:52:17.226Z,65.30
2023-02-15T18:54:44.853Z,68.50
2023-02-15T18:57:14.208Z,256.37
2023-02-15T18:59:40.870Z,195.82
2023-02-15T19:02:17.016Z,131.10
2023-02-15T19:04:45.434Z,113.68
2023-02-15T19:07:31.697Z,130.87
2023-02-15T19:09:59.437Z,77.63
2023-02-15T19:12:27.813Z,138.33
2023-02-15T19:14:56.014Z,151.30
2023-02-15T19:17:23.769Z,132.07
2023-02-15T19:19:52.178Z,75.57
2023-02-15T19:22:29.680Z,159.73
2023-02-15T19:24:59.071Z,77.50
2023-02-15T19:27:31.689Z,133.93
2023-02-15T19:29:59.755Z,66.63
2023-02-15T19:32:27.794Z,105.93
2023-02-15T19:34:54.429Z,106.07
2023-02-15T19:37:28.658Z,36.97
2023-02-15T19:39:56.290Z,40.07
2023-02-15T19:42:24.079Z,34.97
2023-02-15T19:44:51.566Z,52.03
2023-02-15T19:47:18.632Z,29.03
2023-02-15T19:49:45.240Z,26.70
2023-02-15T19:52:24.335Z,31.50
2023-02-15T19:54:53.463Z,34.73
2023-02-15T19:57:20.630Z,35.40
2023-02-15T19:59:47.273Z,37.10
2023-02-15T20:02:15.663Z,60.13
2023-02-15T20:04:42.281Z,40.73
2023-02-15T20:07:17.346Z,50.40
2023-02-15T20:09:44.057Z,58.87
2023-02-15T20:12:20.566Z,50.30
2023-02-15T20:14:47.141Z,69.90
2023-02-15T20:17:13.668Z,43.73
2023-02-15T20:19:41.625Z,43.40
2023-02-15T20:22:27.622Z,42.07
2023-02-15T20:24:56.979Z,31.83
2023-02-15T20:27:24.242Z,35.57
2023-02-15T20:29:51.164Z,32.20
2023-02-15T20:32:17.988Z,31.73
2023-02-15T20:34:44.606Z,48.97
2023-02-15T20:37:26.466Z,34.27
2023-02-15T20:39:53.097Z,61.57
2023-02-15T20:42:20.441Z,40.83
2023-02-15T20:44:47.337Z,51.40
2023-02-15T20:47:14.004Z,44.60
2023-02-15T20:49:40.625Z,30.63
2023-02-15T20:52:19.574Z,25.40
2023-02-15T20:54:46.199Z,37.47
2023-02-15T20:57:12.999Z,50.57
2023-02-15T20:59:40.477Z,32.40
2023-02-15T21:02:23.589Z,40.43
2023-02-15T21:04:50.457Z,38.80
2023-02-15T21:07:19.049Z,39.80
2023-02-15T21:09:46.200Z,34.20
2023-02-15T21:12:15.199Z,39.40
2023-02-15T21:14:41.888Z,31.70
2023-02-15T21:17:12.004Z,34.10
2023-02-15T21:19:40.940Z,39.77
2023-02-15T21:22:11.547Z,37.67
2023-02-15T21:24:38.194Z,34.43
2023-02-15T21:27:07.184Z,39.73
2023-02-15T21:29:33.909Z,36.37
2023-02-15T21:32:02.449Z,31.00
2023-02-15T21:34:29.194Z,30.77
2023-02-15T21:36:55.936Z,30.03
2023-02-15T21:39:24.989Z,30.30
2023-02-15T21:42:11.617Z,27.43
2023-02-15T21:44:56.883Z,25.53
2023-02-15T21:47:47.825Z,41.43
2023-02-15T21:50:39.592Z,31.93
2023-02-15T21:53:07.515Z,34.73
2023-02-15T21:55:34.140Z,43.07
2023-02-15T21:58:01.429Z,37.37
2023-02-15T22:00:28.745Z,35.73
2023-02-15T22:02:58.270Z,29.80
2023-02-15T22:05:31.333Z,31.83
2023-02-15T22:07:58.378Z,27.37
2023-02-15T22:10:30.698Z,28.40
2023-02-15T22:12:57.706Z,27.83
2023-02-15T22:15:26.672Z,28.97
2023-02-15T22:17:53.636Z,27.37
2023-02-15T22:20:22.693Z,42.60
2023-02-15T22:22:50.629Z,29.47
2023-02-15T22:25:20.032Z,26.53
2023-02-15T22:27:47.464Z,42.00
2023-02-15T22:30:22.645Z,38.73
2023-02-15T22:32:49.910Z,30.87
2023-02-15T22:35:22.936Z,30.57
2023-02-15T22:37:49.516Z,27.47
2023-02-15T22:40:31.259Z,48.63
2023-02-15T22:43:00.371Z,36.33
2023-02-15T22:45:29.997Z,48.63
2023-02-15T22:47:58.918Z,34.37
2023-02-15T22:50:27.867Z,33.80
2023-02-15T22:52:54.714Z,48.27
2023-02-15T22:55:23.994Z,59.17
2023-02-15T22:57:53.233Z,64.77
2023-02-15T23:00:25.263Z,58.63
2023-02-15T23:02:53.024Z,60.80
2023-02-15T23:05:30.710Z,46.77
2023-02-15T23:07:58.018Z,39.47
2023-02-15T23:10:26.265Z,70.90
2023-02-15T23:13:16.894Z,58.40
2023-02-15T23:15:45.755Z,77.77
2023-02-15T23:18:32.504Z,48.87
2023-02-15T23:21:02.453Z,47.30
2023-02-15T23:23:31.201Z,47.50
2023-02-15T23:25:57.994Z,65.50
2023-02-15T23:28:28.032Z,43.63
2023-02-15T23:30:54.992Z,52.43
2023-02-15T23:33:23.581Z,48.57
2023-02-15T23:35:50.489Z,51.30
2023-02-15T23:38:23.398Z,57.10
2023-02-15T23:41:21.926Z,56.70
2023-02-15T23:44:02.833Z,58.07
2023-02-15T23:46:49.092Z,66.10
2023-02-15T23:49:18.590Z,66.40
2023-02-15T23:51:54.324Z,60.33
2023-02-15T23:54:25.304Z,59.30
2023-02-15T23:56:57.690Z,68.27
2023-02-15T23:59:27.079Z,51.33
